createdAt,value
2023-02-02T00:02:40.466Z,97731.38
2023-02-02T00:05:25.928Z,97721.94
2023-02-02T00:08:11.046Z,97722.34
2023-02-02T00:10:55.886Z,97724.69
2023-02-02T00:13:40.790Z,97733.00
2023-02-02T00:16:25.648Z,97731.19
2023-02-02T00:19:19.790Z,97719.66
2023-02-02T00:22:05.029Z,97711.84
2023-02-02T00:24:49.917Z,97714.31
2023-02-02T00:27:34.918Z,97711.47
2023-02-02T00:30:19.763Z,97715.19
2023-02-02T00:33:04.617Z,97715.88
2023-02-02T00:35:56.670Z,97714.13
2023-02-02T00:38:42.842Z,97717.91
2023-02-02T00:41:28.167Z,97719.28
2023-02-02T00:44:14.219Z,97720.41
2023-02-02T00:46:59.267Z,97714.59
2023-02-02T00:49:44.176Z,97714.13
2023-02-02T00:52:29.065Z,97709.81
2023-02-02T00:55:17.716Z,97702.66
2023-02-02T00:58:03.024Z,97703.00
2023-02-02T01:00:49.148Z,97692.44
2023-02-02T01:03:35.454Z,97696.00
2023-02-02T01:06:20.587Z,97695.09
2023-02-02T01:09:06.830Z,97691.44
2023-02-02T01:11:55.690Z,97704.69
2023-02-02T01:14:44.553Z,97697.06
2023-02-02T01:17:29.710Z,97707.19
2023-02-02T01:20:15.727Z,97708.69
2023-02-02T01:23:02.188Z,97709.72
2023-02-02T01:25:47.306Z,97710.56
2023-02-02T01:28:33.855Z,97713.00
2023-02-02T01:31:19.135Z,97706.63
2023-02-02T01:34:08.148Z,97711.66
2023-02-02T01:36:55.105Z,97712.63
2023-02-02T01:39:40.291Z,97717.56
2023-02-02T01:42:25.352Z,97718.75
2023-02-02T01:45:19.109Z,97710.81
2023-02-02T01:48:04.366Z,97710.16
2023-02-02T01:50:49.130Z,97706.72
2023-02-02T01:53:35.252Z,97717.69
2023-02-02T01:56:21.657Z,97724.75
2023-02-02T01:59:06.796Z,97719.19
2023-02-02T02:01:54.088Z,97716.38
2023-02-02T02:07:40.792Z,97712.91
2023-02-02T02:10:27.295Z,97713.06
2023-02-02T02:13:16.679Z,97709.28
2023-02-02T02:16:02.941Z,97717.94
2023-02-02T02:18:48.212Z,97713.03
2023-02-02T02:21:33.020Z,97724.03
2023-02-02T02:24:18.013Z,97731.88
2023-02-02T02:27:02.889Z,97724.22
2023-02-02T02:29:50.147Z,97723.44
2023-02-02T02:32:35.302Z,97722.06
2023-02-02T02:35:20.119Z,97732.81
2023-02-02T02:38:06.194Z,97729.88
2023-02-02T02:40:53.658Z,97738.47
2023-02-02T02:43:38.617Z,97738.94
2023-02-02T02:46:23.515Z,97736.00
2023-02-02T02:49:10.704Z,97739.94
2023-02-02T02:52:00.207Z,97738.06
2023-02-02T02:54:47.786Z,97737.59
2023-02-02T02:57:32.980Z,97744.25
2023-02-02T03:00:17.736Z,97737.94
2023-02-02T03:03:03.905Z,97734.31
2023-02-02T03:05:50.188Z,97736.19
2023-02-02T03:08:39.204Z,97724.16
2023-02-02T03:11:24.477Z,97721.53
2023-02-02T03:14:09.353Z,97715.09
2023-02-02T03:16:54.218Z,97708.16
2023-02-02T03:19:40.892Z,97706.63
2023-02-02T03:22:25.956Z,97704.06
2023-02-02T03:25:12.195Z,97701.59
2023-02-02T03:27:57.381Z,97706.25
2023-02-02T03:30:42.330Z,97697.31
2023-02-02T03:33:27.178Z,97708.31
2023-02-02T03:36:11.943Z,97709.06
2023-02-02T03:38:59.298Z,97705.06
2023-02-02T03:41:45.576Z,97705.72
2023-02-02T03:44:32.190Z,97709.34
2023-02-02T03:47:23.148Z,97704.47
2023-02-02T03:50:15.617Z,97694.13
2023-02-02T03:53:01.751Z,97700.50
2023-02-02T03:55:46.872Z,97707.50
2023-02-02T03:58:31.800Z,97700.88
2023-02-02T04:01:23.950Z,97705.50
2023-02-02T04:04:08.962Z,97712.53
2023-02-02T04:06:53.748Z,97716.72
2023-02-02T04:09:38.596Z,97710.72
2023-02-02T04:12:24.658Z,97714.72
2023-02-02T04:15:12.263Z,97718.78
2023-02-02T04:18:01.560Z,97711.00
2023-02-02T04:20:46.501Z,97721.69
2023-02-02T04:23:32.636Z,97711.84
2023-02-02T04:26:20.193Z,97715.09
2023-02-02T04:29:06.409Z,97712.88
2023-02-02T04:31:51.761Z,97719.13
2023-02-02T04:34:37.075Z,97714.66
2023-02-02T04:37:21.872Z,97718.16
2023-02-02T04:40:06.813Z,97728.47
2023-02-02T04:42:51.635Z,97728.00
2023-02-02T04:45:36.618Z,97727.72
2023-02-02T04:48:21.430Z,97732.50
2023-02-02T04:51:08.177Z,97736.25
2023-02-02T04:53:53.327Z,97736.38
2023-02-02T04:56:38.615Z,97733.25
2023-02-02T04:59:25.957Z,97736.13
2023-02-02T05:02:15.183Z,97737.41
2023-02-02T05:07:59.317Z,97741.66
2023-02-02T05:10:44.048Z,97744.81
2023-02-02T05:13:29.021Z,97739.25
2023-02-02T05:16:13.779Z,97740.97
2023-02-02T05:19:00.976Z,97745.81
2023-02-02T05:21:46.112Z,97746.16
2023-02-02T05:24:33.912Z,97739.00
2023-02-02T05:27:19.130Z,97751.91
2023-02-02T05:30:03.946Z,97752.22
2023-02-02T05:32:48.871Z,97741.50
2023-02-02T05:35:33.931Z,97743.22
2023-02-02T05:38:18.947Z,97750.56
2023-02-02T05:41:03.963Z,97756.94
2023-02-02T05:43:48.728Z,97751.81
2023-02-02T05:46:33.697Z,97755.94
2023-02-02T05:49:18.473Z,97757.56
2023-02-02T05:52:03.316Z,97753.16
2023-02-02T05:54:48.101Z,97743.50
2023-02-02T05:57:32.970Z,97741.41
2023-02-02T06:00:17.826Z,97748.00
2023-02-02T06:03:13.210Z,97743.34
2023-02-02T06:05:59.363Z,97746.78
2023-02-02T06:08:48.357Z,97753.34
2023-02-02T06:11:33.581Z,97754.47
2023-02-02T06:14:18.336Z,97762.47
2023-02-02T06:17:05.533Z,97758.34
2023-02-02T06:19:55.023Z,97769.69
2023-02-02T06:22:41.318Z,97769.47
2023-02-02T06:25:26.847Z,97768.47
2023-02-02T06:28:13.190Z,97774.06
2023-02-02T06:31:02.675Z,97774.88
2023-02-02T06:33:47.717Z,97786.25
2023-02-02T06:36:32.731Z,97781.63
2023-02-02T06:39:17.572Z,97775.81
2023-02-02T06:42:19.387Z,97784.94
2023-02-02T06:45:06.261Z,97773.69
2023-02-02T06:47:51.123Z,97779.09
2023-02-02T06:50:37.288Z,97770.66
2023-02-02T06:53:22.359Z,97777.34
2023-02-02T06:56:14.884Z,97775.53
2023-02-02T06:59:00.167Z,97776.09
2023-02-02T07:01:45.182Z,97774.28
2023-02-02T07:04:30.148Z,97777.41
2023-02-02T07:07:15.091Z,97776.03
2023-02-02T07:09:59.950Z,97783.84
2023-02-02T07:12:47.704Z,97791.06
2023-02-02T07:15:32.922Z,97787.31
2023-02-02T07:18:23.557Z,97787.75
2023-02-02T07:21:08.813Z,97779.72
2023-02-02T07:23:53.745Z,97781.59
2023-02-02T07:26:38.573Z,97791.28
2023-02-02T07:29:23.611Z,97791.78
2023-02-02T07:32:11.817Z,97790.91
2023-02-02T07:34:57.032Z,97788.50
2023-02-02T07:37:43.242Z,97788.66
2023-02-02T07:40:28.564Z,97801.84
2023-02-02T07:43:15.751Z,97803.41
2023-02-02T07:46:01.035Z,97811.38
2023-02-02T07:48:45.940Z,97819.44
2023-02-02T07:51:30.743Z,97820.72
2023-02-02T07:54:18.086Z,97828.84
2023-02-02T07:57:03.060Z,97828.16
2023-02-02T07:59:47.944Z,97833.31
2023-02-02T08:02:32.837Z,97823.63
2023-02-02T08:05:17.773Z,97824.34
2023-02-02T08:08:04.024Z,97825.91
2023-02-02T08:10:53.093Z,97832.44
2023-02-02T08:13:38.164Z,97830.41
2023-02-02T08:16:27.449Z,97819.50
2023-02-02T08:19:13.878Z,97806.75
2023-02-02T08:21:59.219Z,97814.59
2023-02-02T08:24:44.048Z,97810.13
2023-02-02T08:27:30.757Z,97814.28
2023-02-02T08:30:15.669Z,97813.19
2023-02-02T08:33:00.591Z,97822.81
2023-02-02T08:35:45.502Z,97823.81
2023-02-02T08:38:32.848Z,97815.22
2023-02-02T08:41:18.085Z,97822.50
2023-02-02T08:44:03.093Z,97833.56
2023-02-02T08:46:50.360Z,97837.97
2023-02-02T08:49:35.671Z,97841.88
2023-02-02T08:52:24.194Z,97851.31
2023-02-02T08:55:12.753Z,97844.97
2023-02-02T08:57:57.890Z,97845.00
2023-02-02T09:00:42.670Z,97855.50
2023-02-02T09:03:27.465Z,97857.34
2023-02-02T09:06:12.265Z,97854.00
2023-02-02T09:08:57.203Z,97861.25
2023-02-02T09:11:42.174Z,97867.75
2023-02-02T09:14:27.085Z,97850.50
2023-02-02T09:17:13.216Z,97856.75
2023-02-02T09:19:58.495Z,97851.91
2023-02-02T09:22:46.994Z,97844.78
2023-02-02T09:25:32.198Z,97853.47
2023-02-02T09:28:21.314Z,97847.47
2023-02-02T09:31:06.590Z,97848.53
2023-02-02T09:33:51.933Z,97852.16
2023-02-02T09:36:39.109Z,97849.19
2023-02-02T09:39:24.342Z,97850.53
2023-02-02T09:42:09.180Z,97852.22
2023-02-02T09:44:54.088Z,97861.81
2023-02-02T09:47:38.980Z,97864.53
2023-02-02T09:50:23.883Z,97854.06
2023-02-02T09:53:08.770Z,97848.88
2023-02-02T09:55:53.569Z,97859.91
2023-02-02T09:58:38.505Z,97856.97
2023-02-02T10:01:25.266Z,97851.38
2023-02-02T10:04:12.678Z,97850.09
2023-02-02T10:07:01.337Z,97858.25
2023-02-02T10:09:46.469Z,97860.56
2023-02-02T10:12:31.202Z,97861.84
2023-02-02T10:15:17.243Z,97868.84
2023-02-02T10:18:04.854Z,97868.38
2023-02-02T10:20:50.908Z,97869.41
2023-02-02T10:23:35.857Z,97872.09
2023-02-02T10:26:20.706Z,97875.50
2023-02-02T10:29:06.113Z,97871.38
2023-02-02T10:31:51.276Z,97878.34
2023-02-02T10:34:39.568Z,97881.84
2023-02-02T10:37:26.093Z,97887.31
2023-02-02T10:40:11.274Z,97880.97
2023-02-02T10:42:57.244Z,97895.00
2023-02-02T10:45:43.155Z,97891.00
2023-02-02T10:48:27.910Z,97893.09
2023-02-02T10:51:12.905Z,97891.53
2023-02-02T10:53:58.940Z,97895.22
2023-02-02T10:56:46.998Z,97887.13
2023-02-02T10:59:36.464Z,97895.63
2023-02-02T11:02:22.852Z,97896.38
2023-02-02T11:05:09.240Z,97887.72
2023-02-02T11:08:01.870Z,97885.13
2023-02-02T11:10:47.052Z,97877.44
2023-02-02T11:13:32.489Z,97879.53
2023-02-02T11:16:17.840Z,97878.59
2023-02-02T11:19:02.784Z,97883.84
2023-02-02T11:21:47.603Z,97877.19
2023-02-02T11:24:32.496Z,97882.50
2023-02-02T11:27:17.327Z,97876.63
2023-02-02T11:30:02.215Z,97868.91
2023-02-02T11:32:49.478Z,97879.00
2023-02-02T11:35:34.410Z,97885.44
2023-02-02T11:38:19.444Z,97885.13
2023-02-02T11:41:07.200Z,97876.34
2023-02-02T11:43:52.308Z,97879.41
2023-02-02T11:46:37.222Z,97873.38
2023-02-02T11:49:22.077Z,97873.97
2023-02-02T11:52:09.651Z,97879.50
2023-02-02T11:54:54.636Z,97873.09
2023-02-02T11:57:39.672Z,97882.84
2023-02-02T12:00:24.715Z,97870.59
2023-02-02T12:03:09.831Z,97855.38
2023-02-02T12:05:54.748Z,97856.81
2023-02-02T12:08:39.589Z,97852.84
2023-02-02T12:11:27.131Z,97851.19
2023-02-02T12:14:11.697Z,97844.66
2023-02-02T12:16:56.669Z,97847.72
2023-02-02T12:19:42.895Z,97844.78
2023-02-02T12:22:29.854Z,97835.34
2023-02-02T12:25:15.077Z,97826.22
2023-02-02T12:27:59.823Z,97827.81
2023-02-02T12:30:44.851Z,97829.44
2023-02-02T12:33:31.892Z,97827.75
2023-02-02T12:36:16.923Z,97821.88
2023-02-02T12:39:04.156Z,97824.97
2023-02-02T12:41:49.314Z,97825.56
2023-02-02T12:44:34.259Z,97830.88
2023-02-02T12:47:20.544Z,97821.84
2023-02-02T12:50:05.790Z,97824.28
2023-02-02T12:52:50.737Z,97825.69
2023-02-02T12:55:37.839Z,97823.19
2023-02-02T12:58:29.376Z,97830.56
2023-02-02T13:01:14.642Z,97828.91
2023-02-02T13:04:02.060Z,97822.75
2023-02-02T13:06:47.082Z,97826.88
2023-02-02T13:09:31.987Z,97838.97
2023-02-02T13:12:16.906Z,97831.56
2023-02-02T13:15:01.900Z,97834.06
2023-02-02T13:17:48.001Z,97840.59
2023-02-02T13:20:33.216Z,97830.16
2023-02-02T13:23:20.544Z,97832.47
2023-02-02T13:26:05.669Z,97827.44
2023-02-02T13:28:53.474Z,97811.34
2023-02-02T13:31:38.731Z,97822.22
2023-02-02T13:34:23.938Z,97819.56
2023-02-02T13:37:08.794Z,97815.47
2023-02-02T13:39:53.720Z,97826.25
2023-02-02T13:42:40.517Z,97831.25
2023-02-02T13:45:26.360Z,97822.16
2023-02-02T13:48:11.688Z,97830.13
2023-02-02T13:50:56.519Z,97834.56
2023-02-02T13:53:41.422Z,97835.47
2023-02-02T13:56:29.235Z,97836.06
2023-02-02T13:59:16.094Z,97838.53
2023-02-02T14:02:04.863Z,97832.81
2023-02-02T14:04:49.948Z,97838.47
2023-02-02T14:07:35.928Z,97844.63
2023-02-02T14:10:21.912Z,97832.19
2023-02-02T14:13:08.971Z,97835.25
2023-02-02T14:15:54.087Z,97826.25
2023-02-02T14:18:39.963Z,97848.91
2023-02-02T14:21:27.586Z,97840.63
2023-02-02T14:24:12.844Z,97842.72
2023-02-02T14:26:57.774Z,97857.78
2023-02-02T14:29:46.798Z,97854.03
2023-02-02T14:32:32.099Z,97866.63
2023-02-02T14:35:16.906Z,97864.13
2023-02-02T14:38:01.753Z,97864.09
2023-02-02T14:40:46.594Z,97856.31
2023-02-02T14:43:31.492Z,97866.59
2023-02-02T14:46:16.336Z,97862.34
2023-02-02T14:49:04.426Z,97862.19
2023-02-02T14:51:51.350Z,97861.41
2023-02-02T14:54:36.314Z,97856.69
2023-02-02T14:57:22.366Z,97852.13
2023-02-02T15:00:07.709Z,97867.94
2023-02-02T15:02:52.661Z,97877.13
2023-02-02T15:05:44.966Z,97879.84
2023-02-02T15:08:30.175Z,97874.38
2023-02-02T15:11:16.153Z,97864.19
2023-02-02T15:14:02.464Z,97879.63
2023-02-02T15:16:48.039Z,97873.31
2023-02-02T15:19:33.151Z,97886.94
2023-02-02T15:22:18.014Z,97888.47
2023-02-02T15:25:02.774Z,97887.63
2023-02-02T15:27:56.326Z,97875.84
2023-02-02T15:30:42.170Z,97881.16
2023-02-02T15:33:29.349Z,97887.94
2023-02-02T15:36:14.402Z,97887.97
2023-02-02T15:38:59.361Z,97892.09
2023-02-02T15:41:44.038Z,97896.06
2023-02-02T15:44:28.951Z,97904.75
2023-02-02T15:47:13.849Z,97902.69
2023-02-02T15:50:00.065Z,97904.38
2023-02-02T15:52:46.457Z,97903.00
2023-02-02T15:55:32.711Z,97896.53
2023-02-02T15:58:17.998Z,97899.47
2023-02-02T16:01:04.266Z,97899.22
2023-02-02T16:03:50.589Z,97898.63
2023-02-02T16:06:35.845Z,97918.59
2023-02-02T16:09:20.649Z,97917.25
2023-02-02T16:12:07.972Z,97918.28
2023-02-02T16:14:53.113Z,97927.56
2023-02-02T16:17:37.975Z,97936.63
2023-02-02T16:20:22.864Z,97943.44
2023-02-02T16:23:07.585Z,97945.63
2023-02-02T16:25:55.462Z,97945.13
2023-02-02T16:28:45.718Z,97945.84
2023-02-02T16:31:33.509Z,97945.66
2023-02-02T16:34:18.572Z,97953.81
2023-02-02T16:37:03.430Z,97957.16
2023-02-02T16:39:48.291Z,97961.75
2023-02-02T16:42:33.197Z,97969.59
2023-02-02T16:45:18.053Z,97968.16
2023-02-02T16:48:07.288Z,97971.78
2023-02-02T16:50:52.455Z,97962.75
2023-02-02T16:53:37.297Z,97962.22
2023-02-02T16:56:22.181Z,97959.78
2023-02-02T16:59:07.275Z,97969.34
2023-02-02T17:01:52.175Z,97976.06
2023-02-02T17:04:39.469Z,97974.81
2023-02-02T17:07:27.368Z,97986.50
2023-02-02T17:10:12.451Z,97989.22
2023-02-02T17:12:57.491Z,98003.97
2023-02-02T17:15:43.387Z,97990.53
2023-02-02T17:18:28.442Z,97990.97
2023-02-02T17:21:13.287Z,97991.94
2023-02-02T17:23:58.151Z,97991.59
2023-02-02T17:26:43.074Z,97996.00
2023-02-02T17:29:27.721Z,98004.69
2023-02-02T17:32:12.651Z,98005.03
2023-02-02T17:34:57.538Z,97998.69
2023-02-02T17:37:44.627Z,98003.09
2023-02-02T17:40:30.852Z,98005.06
2023-02-02T17:43:16.065Z,97999.69
2023-02-02T17:46:08.370Z,98000.53
2023-02-02T17:48:53.421Z,97998.56
2023-02-02T17:51:38.316Z,97993.25
2023-02-02T17:54:23.147Z,97998.16
2023-02-02T17:57:07.881Z,97994.31
2023-02-02T17:59:52.783Z,97986.13
2023-02-02T18:02:37.887Z,97987.19
2023-02-02T18:05:22.929Z,97989.25
2023-02-02T18:08:08.204Z,97986.91
2023-02-02T18:10:55.457Z,97994.91
2023-02-02T18:13:41.723Z,97982.59
2023-02-02T18:16:26.944Z,97985.28
2023-02-02T18:19:11.830Z,97987.34
2023-02-02T18:21:56.714Z,97974.69
2023-02-02T18:24:41.483Z,97975.75
2023-02-02T18:27:26.532Z,97979.78
2023-02-02T18:30:11.580Z,97983.28
2023-02-02T18:32:58.910Z,97988.03
2023-02-02T18:35:44.227Z,97983.09
2023-02-02T18:38:30.291Z,97982.56
2023-02-02T18:41:15.578Z,97990.34
2023-02-02T18:44:10.680Z,97992.47
2023-02-02T18:46:57.031Z,97987.09
2023-02-02T18:49:42.278Z,97982.69
2023-02-02T18:52:27.101Z,97983.50
2023-02-02T18:55:13.107Z,97987.31
2023-02-02T18:57:58.448Z,97986.22
2023-02-02T19:00:43.313Z,97988.31
2023-02-02T19:03:28.290Z,97994.88
2023-02-02T19:06:14.403Z,97993.34
2023-02-02T19:08:59.642Z,97993.09
2023-02-02T19:11:53.257Z,97989.13
2023-02-02T19:14:39.682Z,97985.06
2023-02-02T19:17:27.192Z,97983.34
2023-02-02T19:20:12.152Z,97992.25
2023-02-02T19:22:57.215Z,97991.25
2023-02-02T19:25:46.559Z,97991.78
2023-02-02T19:28:36.805Z,97998.19
2023-02-02T19:31:21.991Z,97998.84
2023-02-02T19:34:09.017Z,97992.38
2023-02-02T19:36:54.122Z,97989.72
2023-02-02T19:39:40.151Z,97992.00
2023-02-02T19:42:25.538Z,97992.66
2023-02-02T19:45:10.323Z,98000.63
2023-02-02T19:47:57.049Z,98004.84
2023-02-02T19:50:43.855Z,98001.69
2023-02-02T19:53:28.975Z,98005.47
2023-02-02T19:56:14.087Z,98002.94
2023-02-02T19:58:59.351Z,98005.97
2023-02-02T20:01:44.392Z,98005.50
2023-02-02T20:04:31.403Z,98013.38
2023-02-02T20:07:17.674Z,98009.31
2023-02-02T20:10:05.340Z,98012.19
2023-02-02T20:12:50.580Z,98016.25
2023-02-02T20:15:35.415Z,98010.34
2023-02-02T20:18:21.564Z,98013.44
2023-02-02T20:21:11.012Z,98010.63
2023-02-02T20:23:59.978Z,98004.03
2023-02-02T20:26:45.212Z,98007.91
2023-02-02T20:29:31.279Z,98001.88
2023-02-02T20:32:16.388Z,98000.66
2023-02-02T20:35:01.276Z,98004.75
2023-02-02T20:40:50.785Z,97999.28
2023-02-02T20:43:39.048Z,97995.94
2023-02-02T20:46:24.131Z,98001.66
2023-02-02T20:49:09.176Z,98000.22
2023-02-02T20:51:57.644Z,97995.78
2023-02-02T20:54:42.967Z,97999.47
2023-02-02T20:57:29.018Z,97992.50
2023-02-02T21:00:17.262Z,97998.75
2023-02-02T21:03:04.551Z,98006.72
2023-02-02T21:05:51.450Z,98006.53
2023-02-02T21:08:36.613Z,98001.81
2023-02-02T21:11:22.530Z,98000.03
2023-02-02T21:14:07.848Z,98001.03
2023-02-02T21:16:57.412Z,98004.09
2023-02-02T21:19:50.227Z,98006.56
2023-02-02T21:22:37.455Z,98010.59
2023-02-02T21:25:22.489Z,98011.16
2023-02-02T21:28:07.459Z,98009.63
2023-02-02T21:30:52.424Z,98005.16
2023-02-02T21:33:41.608Z,98003.84
2023-02-02T21:36:26.884Z,98009.09
2023-02-02T21:39:11.866Z,98013.06
2023-02-02T21:41:57.991Z,98009.84
2023-02-02T21:44:43.158Z,98017.63
2023-02-02T21:47:27.954Z,98016.41
2023-02-02T21:50:17.100Z,98015.44
2023-02-02T21:53:02.320Z,98018.84
2023-02-02T21:55:47.202Z,98014.44
2023-02-02T21:58:34.279Z,98018.75
2023-02-02T22:01:20.528Z,98030.50
2023-02-02T22:04:05.739Z,98032.72
2023-02-02T22:06:50.637Z,98039.69
2023-02-02T22:09:35.578Z,98038.94
2023-02-02T22:12:20.460Z,98040.59
2023-02-02T22:15:05.406Z,98038.22
2023-02-02T22:17:50.359Z,98050.38
2023-02-02T22:20:36.435Z,98052.19
2023-02-02T22:23:21.807Z,98047.44
2023-02-02T22:26:06.799Z,98053.13
2023-02-02T22:28:51.795Z,98059.00
2023-02-02T22:31:36.684Z,98046.47
2023-02-02T22:34:21.533Z,98063.16
2023-02-02T22:37:06.526Z,98062.19
2023-02-02T22:39:51.480Z,98059.25
2023-02-02T22:42:36.555Z,98064.13
2023-02-02T22:45:21.635Z,98056.47
2023-02-02T22:48:06.457Z,98065.53
2023-02-02T22:50:51.337Z,98068.16
2023-02-02T22:53:36.328Z,98067.34
2023-02-02T22:56:21.250Z,98077.13
2023-02-02T22:59:07.258Z,98081.66
2023-02-02T23:01:52.534Z,98077.25
2023-02-02T23:04:39.602Z,98080.78
2023-02-02T23:07:25.925Z,98085.28
2023-02-02T23:10:11.081Z,98086.16
2023-02-02T23:12:58.699Z,98089.63
2023-02-02T23:15:45.301Z,98096.41
2023-02-02T23:18:30.552Z,98098.25
2023-02-02T23:21:15.370Z,98110.88
2023-02-02T23:24:00.368Z,98106.72
2023-02-02T23:26:45.284Z,98115.16
2023-02-02T23:29:30.180Z,98109.06
2023-02-02T23:32:15.076Z,98115.19
2023-02-02T23:35:01.148Z,98120.59
2023-02-02T23:37:47.529Z,98123.41
2023-02-02T23:40:32.758Z,98132.38
2023-02-02T23:43:17.697Z,98132.53
2023-02-02T23:46:02.547Z,98128.41
2023-02-02T23:48:48.684Z,98135.19
2023-02-02T23:51:33.870Z,98135.75
2023-02-02T23:54:18.764Z,98133.63
2023-02-02T23:57:03.696Z,98138.56
2023-02-02T23:59:48.638Z,98130.16
